Time;durP1;ratioP1;P1;durP2;ratioP2;P2;SDS_P1;SDS_P2;PMS_P1;PMS_P2;Temp;Humidity;BMP_temperature;BMP_pressure;BME280_temperature;BME280_humidity;BME280_pressure;Samples;Min_cycle;Max_cycle;Signal;HPM_P1;HPM_P2
2021/10/25 00:02:14;;;;;;;0.10;0.10;;;;;;;8.20;93.16;101312.84;5050126;28;20029;-66
2021/10/25 00:04:40;;;;;;;0.10;0.10;;;;;;;8.25;92.99;101312.69;5043000;28;20099;-66
2021/10/25 00:07:06;;;;;;;0.00;0.00;;;;;;;8.21;92.46;101314.41;5044934;28;20041;-66
2021/10/25 00:09:31;;;;;;;0.10;0.10;;;;;;;8.20;92.82;101308.28;5048591;28;20040;-66
2021/10/25 00:11:57;;;;;;;0.20;0.20;;;;;;;8.15;92.85;101319.19;5049099;28;20037;-66
2021/10/25 00:14:24;;;;;;;0.20;0.20;;;;;;;8.13;92.76;101317.91;5032411;28;20523;-66
2021/10/25 00:16:49;;;;;;;0.10;0.10;;;;;;;8.23;92.83;101304.16;5044104;28;20033;-66
2021/10/25 00:19:15;;;;;;;0.10;0.10;;;;;;;8.19;92.88;101306.69;5047699;28;20068;-66
2021/10/25 00:21:41;;;;;;;0.22;0.22;;;;;;;8.16;92.96;101306.56;5049508;28;20409;-66
2021/10/25 00:24:07;;;;;;;0.10;0.10;;;;;;;8.19;92.97;101305.91;5049421;28;20029;-66
2021/10/25 00:26:33;;;;;;;0.10;0.10;;;;;;;8.20;93.09;101305.59;5027142;28;20107;-66
2021/10/25 00:28:59;;;;;;;0.10;0.10;;;;;;;8.08;92.91;101299.31;5050619;28;20029;-66
2021/10/25 00:31:24;;;;;;;1.13;1.00;;;;;;;8.06;93.54;101302.34;5050180;28;20071;-65
2021/10/25 00:33:50;;;;;;;0.10;0.10;;;;;;;8.12;93.35;101301.06;5028480;28;20160;-66
2021/10/25 00:36:17;;;;;;;0.10;0.10;;;;;;;8.08;93.03;101293.97;5049245;28;20025;-66
2021/10/25 00:38:42;;;;;;;0.10;0.10;;;;;;;8.08;93.15;101294.75;5048946;28;20064;-66
2021/10/25 00:41:09;;;;;;;0.10;0.10;;;;;;;8.02;93.20;101295.25;5047049;28;20029;-66
2021/10/25 00:43:35;;;;;;;0.10;0.10;;;;;;;8.01;94.14;101291.00;5030350;28;20436;-65
2021/10/25 00:46:00;;;;;;;0.10;0.10;;;;;;;7.98;93.81;101294.31;5014751;28;20029;-66
2021/10/25 00:48:26;;;;;;;0.10;0.10;;;;;;;8.09;93.67;101287.50;5037193;28;20098;-66
2021/10/25 00:50:51;;;;;;;0.10;0.10;;;;;;;8.01;93.82;101296.38;5046806;28;20040;-66
2021/10/25 00:53:18;;;;;;;0.15;0.15;;;;;;;7.98;94.17;101283.59;5051440;28;20048;-66
2021/10/25 00:55:44;;;;;;;0.10;0.10;;;;;;;7.99;93.73;101285.94;5051716;28;20033;-67
2021/10/25 00:58:10;;;;;;;0.10;0.10;;;;;;;7.95;93.49;101278.88;5051178;28;20048;-65
2021/10/25 01:00:37;;;;;;;0.10;0.10;;;;;;;8.04;93.22;101283.09;5035933;28;20025;-66
2021/10/25 01:03:03;;;;;;;0.20;0.20;;;;;;;7.94;93.66;101277.28;5034350;28;20024;-66
2021/10/25 01:05:30;;;;;;;0.10;0.10;;;;;;;7.91;93.81;101281.41;5034431;28;20020;-66
2021/10/25 01:07:56;;;;;;;0.10;0.10;;;;;;;7.91;94.15;101278.75;5034203;28;20040;-66
2021/10/25 01:10:23;;;;;;;0.17;0.17;;;;;;;7.91;93.74;101283.31;5031009;28;20052;-67
2021/10/25 01:12:51;;;;;;;0.10;0.10;;;;;;;7.83;94.27;101284.13;5043779;28;20196;-65
2021/10/25 01:15:17;;;;;;;0.10;0.10;;;;;;;7.82;94.59;101283.31;5051252;28;20523;-66
2021/10/25 01:17:52;;;;;;;0.10;0.10;;;;;;;7.85;94.15;101279.22;5034584;28;20043;-66
2021/10/25 01:20:17;;;;;;;0.10;0.10;;;;;;;7.76;94.60;101270.44;5014598;28;20041;-66
2021/10/25 01:22:43;;;;;;;0.10;0.10;;;;;;;7.77;94.50;101275.47;5034673;28;20040;-66
2021/10/25 01:25:09;;;;;;;0.10;0.10;;;;;;;7.76;94.50;101271.19;5043167;28;20033;-66
2021/10/25 01:27:34;;;;;;;0.30;0.30;;;;;;;7.73;94.08;101269.16;5052478;28;20029;-66
2021/10/25 01:30:00;;;;;;;0.40;0.40;;;;;;;7.74;94.46;101260.00;5052245;28;20035;-66
2021/10/25 01:32:25;;;;;;;0.10;0.10;;;;;;;7.76;94.62;101262.38;5032965;28;20556;-65
2021/10/25 01:34:51;;;;;;;0.10;0.10;;;;;;;7.66;95.01;101257.38;5021046;28;20029;-66
2021/10/25 01:37:17;;;;;;;0.10;0.10;;;;;;;7.66;94.83;101257.38;5014784;28;20099;-66
2021/10/25 01:39:43;;;;;;;0.10;0.10;;;;;;;7.64;95.49;101254.22;5029178;28;20028;-66
2021/10/25 01:42:09;;;;;;;0.10;0.10;;;;;;;7.62;95.34;101251.88;5034394;28;20094;-66
2021/10/25 01:44:36;;;;;;;0.10;0.10;;;;;;;7.60;95.49;101246.03;5027607;28;20025;-65
2021/10/25 01:47:02;;;;;;;0.10;0.10;;;;;;;7.65;94.65;101251.22;5033781;28;20041;-66
2021/10/25 01:49:30;;;;;;;0.10;0.10;;;;;;;7.60;95.00;101253.28;5017279;28;20025;-66
2021/10/25 01:51:57;;;;;;;0.10;0.10;;;;;;;7.62;95.52;101254.53;5034385;28;20116;-66
2021/10/25 01:54:24;;;;;;;0.10;0.10;;;;;;;7.54;95.35;101243.84;5033943;28;20032;-66
2021/10/25 01:56:50;;;;;;;0.15;0.15;;;;;;;7.52;95.26;101243.38;5033889;28;20032;-65
2021/10/25 01:59:16;;;;;;;0.10;0.10;;;;;;;7.51;95.21;101244.50;5030068;28;20386;-66
2021/10/25 02:01:41;;;;;;;0.10;0.10;;;;;;;7.45;95.38;101243.88;5034125;28;20037;-66
2021/10/25 02:04:07;;;;;;;0.10;0.10;;;;;;;7.50;95.59;101250.94;5017416;28;20029;-66
2021/10/25 02:06:34;;;;;;;0.20;0.20;;;;;;;7.46;95.29;101244.63;5031181;28;20045;-66
2021/10/25 02:09:00;;;;;;;0.10;0.10;;;;;;;7.39;95.74;101239.78;5032914;28;20515;-65
2021/10/25 02:11:26;;;;;;;0.10;0.10;;;;;;;7.36;96.22;101234.25;5031262;28;20028;-67
2021/10/25 02:14:02;;;;;;;0.10;0.10;;;;;;;7.37;96.32;101242.00;5027294;28;20069;-65
2021/10/25 02:16:28;;;;;;;0.10;0.10;;;;;;;7.32;96.11;101242.94;5050186;28;20033;-66
2021/10/25 02:18:54;;;;;;;0.10;0.10;;;;;;;7.29;96.20;101235.56;5047922;28;20029;-66
2021/10/25 02:21:25;;;;;;;;;;;;;;;7.31;96.05;101237.91;5023387;28;20033;-66
2021/10/25 02:23:51;;;;;;;0.10;0.10;;;;;;;7.32;96.27;101234.91;5048823;28;19916;-66
2021/10/25 02:26:17;;;;;;;0.25;0.25;;;;;;;7.24;96.45;101230.34;5023176;28;20391;-66
2021/10/25 02:28:42;;;;;;;0.10;0.10;;;;;;;7.22;96.57;101223.72;5031641;28;20033;-66
2021/10/25 02:31:09;;;;;;;0.10;0.10;;;;;;;7.20;96.99;101231.31;5032920;28;20055;-67
2021/10/25 02:33:38;;;;;;;0.10;0.10;;;;;;;7.17;97.14;101221.22;5033756;28;20481;-67
2021/10/25 02:36:06;;;;;;;0.20;0.20;;;;;;;7.12;97.14;101216.81;5029615;28;20120;-67
2021/10/25 02:38:37;;;;;;;0.10;0.10;;;;;;;7.18;96.83;101215.53;5041463;28;20032;-67
2021/10/25 02:41:05;;;;;;;0.10;0.10;;;;;;;7.17;97.12;101215.88;5032394;28;20043;-66
2021/10/25 02:43:31;;;;;;;0.10;0.10;;;;;;;7.16;96.78;101212.38;5042348;28;20107;-66
2021/10/25 02:45:59;;;;;;;0.10;0.10;;;;;;;7.14;97.13;101214.59;5026590;28;20036;-66
2021/10/25 02:48:25;;;;;;;0.10;0.10;;;;;;;7.11;97.51;101217.13;5020483;28;20013;-68
2021/10/25 02:50:52;;;;;;;0.10;0.10;;;;;;;7.08;97.27;101215.88;5027194;28;20397;-67
2021/10/25 02:53:18;;;;;;;0.38;0.38;;;;;;;7.07;97.52;101208.16;5046650;28;20044;-67
2021/10/25 02:55:45;;;;;;;0.10;0.10;;;;;;;7.03;97.29;101210.69;5048900;28;20025;-67
2021/10/25 02:58:11;;;;;;;0.10;0.10;;;;;;;7.03;97.62;101205.34;5028565;28;20064;-67
2021/10/25 03:00:36;;;;;;;0.10;0.10;;;;;;;7.00;97.35;101208.66;5031491;28;20037;-67
2021/10/25 03:03:07;;;;;;;0.08;0.08;;;;;;;7.04;96.94;101206.13;5032491;28;20378;-67
2021/10/25 03:05:33;;;;;;;0.30;0.30;;;;;;;7.11;96.58;101204.53;5032402;28;20029;-67
2021/10/25 03:07:59;;;;;;;0.10;0.10;;;;;;;7.08;96.63;101199.03;5041100;28;20047;-65
2021/10/25 03:10:25;;;;;;;0.22;0.22;;;;;;;7.01;97.02;101207.53;5032272;28;20029;-67
2021/10/25 03:12:50;;;;;;;0.10;0.10;;;;;;;6.98;97.31;101208.19;5046738;28;20088;-66
2021/10/25 03:15:17;;;;;;;0.28;0.28;;;;;;;7.03;97.09;101201.84;5031400;28;20063;-66
2021/10/25 03:17:44;;;;;;;0.20;0.20;;;;;;;7.02;97.20;101197.63;5040676;28;20035;-67
2021/10/25 03:20:32;;;;;;;0.10;0.10;;;;;;;6.95;97.50;101195.41;5046620;28;20425;-68
2021/10/25 03:22:58;;;;;;;0.28;0.28;;;;;;;6.93;97.68;101196.84;5031229;28;20036;-67
2021/10/25 03:25:24;;;;;;;0.30;0.20;;;;;;;6.89;97.90;101191.31;5045688;28;20028;-67
2021/10/25 03:27:50;;;;;;;0.35;0.35;;;;;;;6.92;97.89;101188.03;5030629;28;20036;-67
2021/10/25 03:30:18;;;;;;;0.20;0.20;;;;;;;6.89;97.79;101183.28;5032552;28;20029;-67
2021/10/25 03:32:47;;;;;;;0.13;0.13;;;;;;;6.88;97.86;101191.66;5046858;28;20086;-67
2021/10/25 03:35:31;;;;;;;0.10;0.10;;;;;;;6.88;98.05;101192.44;5040429;28;20083;-66
2021/10/25 03:37:58;;;;;;;0.20;0.20;;;;;;;6.85;98.18;101187.69;5047772;28;20032;-67
2021/10/25 03:40:24;;;;;;;0.10;0.10;;;;;;;6.80;98.10;101187.06;5027500;28;20017;-67
2021/10/25 03:42:51;;;;;;;0.10;0.10;;;;;;;6.75;98.15;101189.94;5030489;28;20043;-67
2021/10/25 03:45:29;;;;;;;0.10;0.10;;;;;;;6.79;98.10;101188.19;5031817;28;20047;-66
2021/10/25 03:50:26;;;;;;;0.10;0.10;;;;;;;6.69;98.24;101199.22;5027989;28;20037;-67
2021/10/25 03:53:22;;;;;;;0.10;0.10;;;;;;;6.68;98.21;101195.75;5047777;28;20029;-67
2021/10/25 03:55:56;;;;;;;0.10;0.10;;;;;;;6.70;98.26;101192.75;5045486;28;20032;-67
2021/10/25 04:03:55;;;;;;;0.15;0.15;;;;;;;6.61;98.38;101187.41;5041206;28;20162;-67
2021/10/25 04:28:48;;;;;;;0.10;0.10;;;;;;;6.56;98.91;101184.91;4985112;28;20039;-67
2021/10/25 04:31:14;;;;;;;0.20;0.20;;;;;;;6.50;99.04;101175.44;4983319;28;20121;-66
2021/10/25 04:34:12;;;;;;;0.00;0.00;;;;;;;6.48;98.62;101185.69;4978529;28;20030;-66
2021/10/25 04:36:47;;;;;;;0.05;0.05;;;;;;;6.46;99.36;101177.19;4984029;28;20065;-67
2021/10/25 04:39:38;;;;;;;0.10;0.10;;;;;;;6.44;98.91;101178.59;4990214;28;20046;-66
2021/10/25 04:42:09;;;;;;;0.20;0.20;;;;;;;6.44;98.32;101175.91;4985652;28;20053;-67
2021/10/25 04:44:35;;;;;;;0.10;0.10;;;;;;;6.43;98.61;101169.75;4987482;28;20034;-66
2021/10/25 04:47:01;;;;;;;0.30;0.30;;;;;;;6.44;98.70;101167.88;4991093;28;20042;-66
2021/10/25 04:49:27;;;;;;;0.10;0.10;;;;;;;6.43;98.84;101164.41;4978228;28;20022;-66
2021/10/25 04:52:18;;;;;;;0.10;0.10;;;;;;;6.38;98.93;101167.25;4985447;28;20038;-67
2021/10/25 04:54:44;;;;;;;0.10;0.10;;;;;;;6.36;99.03;101162.22;4986432;28;20030;-66
2021/10/25 04:57:09;;;;;;;0.10;0.10;;;;;;;6.29;98.93;101159.22;4973207;28;20392;-66
2021/10/25 04:59:36;;;;;;;0.10;0.10;;;;;;;6.20;99.05;101157.63;5001653;28;20413;-66
2021/10/25 05:02:03;;;;;;;0.10;0.10;;;;;;;6.24;99.06;101162.06;5042870;28;20021;-67
2021/10/25 05:04:30;;;;;;;0.17;0.17;;;;;;;6.22;99.16;101156.22;5049976;28;20036;-67
2021/10/25 05:06:56;;;;;;;0.10;0.10;;;;;;;6.24;98.89;101153.22;5028159;28;20036;-67
2021/10/25 05:09:22;;;;;;;0.10;0.10;;;;;;;6.21;99.09;101156.53;5033962;28;20033;-67
2021/10/25 05:11:48;;;;;;;0.17;0.17;;;;;;;6.26;98.90;101151.81;5033880;28;20124;-67
2021/10/25 05:14:13;;;;;;;0.10;0.10;;;;;;;6.28;99.15;101162.22;5042386;22;20052;-67
2021/10/25 05:16:40;;;;;;;0.10;0.10;;;;;;;6.28;99.13;101159.53;5033771;28;20029;-67
2021/10/25 05:19:08;;;;;;;0.10;0.10;;;;;;;6.33;98.93;101151.34;5042318;28;20036;-67
2021/10/25 05:21:35;;;;;;;0.10;0.10;;;;;;;6.26;99.30;101159.06;5024199;28;20025;-67
2021/10/25 05:24:01;;;;;;;0.10;0.10;;;;;;;6.29;99.33;101155.78;5051162;28;20118;-67
2021/10/25 05:26:28;;;;;;;0.10;0.10;;;;;;;6.28;99.76;101151.50;5029950;28;20052;-67
2021/10/25 05:28:54;;;;;;;0.10;0.10;;;;;;;6.27;99.39;101161.41;5025985;28;20030;-67
2021/10/25 05:31:19;;;;;;;0.38;0.38;;;;;;;6.29;99.82;101161.88;5031565;28;20567;-67
2021/10/25 05:33:45;;;;;;;0.10;0.10;;;;;;;6.29;99.64;101153.09;5018227;28;20035;-67
2021/10/25 05:36:10;;;;;;;0.15;0.15;;;;;;;6.28;99.69;101157.66;5015144;28;20543;-67
2021/10/25 05:38:37;;;;;;;0.10;0.10;;;;;;;6.25;100.00;101157.50;5021363;28;20045;-67
2021/10/25 05:41:05;;;;;;;0.20;0.20;;;;;;;6.34;99.90;101158.28;5028932;28;20064;-67
2021/10/25 05:43:32;;;;;;;0.10;0.10;;;;;;;6.35;99.64;101152.63;5011176;28;20512;-67
2021/10/25 05:45:58;;;;;;;0.10;0.10;;;;;;;6.29;99.65;101153.88;5012179;28;20037;-67
2021/10/25 05:48:24;;;;;;;0.17;0.17;;;;;;;6.28;99.97;101149.63;5030700;28;20034;-67
2021/10/25 05:50:49;;;;;;;0.20;0.20;;;;;;;6.23;100.00;101155.09;5035554;28;20406;-67
2021/10/25 05:53:15;;;;;;;0.10;0.10;;;;;;;6.23;100.00;101155.09;5014009;28;20029;-68
2021/10/25 05:55:43;;;;;;;0.10;0.10;;;;;;;6.24;100.00;101146.00;5032294;28;20145;-68
2021/10/25 05:58:21;;;;;;;0.10;0.10;;;;;;;6.24;100.00;101140.66;4995500;28;20033;-68
2021/10/25 06:00:56;;;;;;;0.10;0.10;;;;;;;6.21;100.00;101149.28;5012107;28;20029;-67
2021/10/25 06:03:43;;;;;;;0.13;0.13;;;;;;;6.17;100.00;101145.69;5031555;28;20052;-68
2021/10/25 06:06:09;;;;;;;0.10;0.10;;;;;;;6.15;100.00;101145.22;5026635;28;20037;-68
2021/10/25 06:08:38;;;;;;;0.10;0.10;;;;;;;6.11;100.00;101151.50;5028580;28;20405;-68
2021/10/25 06:11:04;;;;;;;0.10;0.10;;;;;;;6.13;100.00;101138.59;5018568;28;20037;-67
2021/10/25 06:13:38;;;;;;;0.10;0.10;;;;;;;6.16;100.00;101145.97;5035148;28;20043;-68
2021/10/25 06:16:12;;;;;;;0.20;0.20;;;;;;;6.13;100.00;101151.97;5000380;28;20060;-68
2021/10/25 06:18:41;;;;;;;;;;;;;;;6.15;100.00;101136.41;5026071;28;20116;-68
2021/10/25 06:21:08;;;;;;;0.10;0.10;;;;;;;6.21;100.00;101145.84;5036480;28;19913;-68
2021/10/25 06:23:35;;;;;;;0.10;0.10;;;;;;;6.16;100.00;101148.66;5036040;28;20468;-68
2021/10/25 06:26:06;;;;;;;0.10;0.10;;;;;;;6.12;100.00;101145.03;5022610;28;20026;-68
2021/10/25 06:28:33;;;;;;;0.10;0.10;;;;;;;6.19;100.00;101143.47;5030332;28;20131;-68
2021/10/25 06:31:08;;;;;;;0.10;0.10;;;;;;;6.21;100.00;101145.84;5024344;28;20049;-68
2021/10/25 06:33:58;;;;;;;0.10;0.10;;;;;;;6.21;100.00;101143.19;5017963;28;20406;-68
2021/10/25 06:36:31;;;;;;;0.00;0.00;;;;;;;6.27;100.00;101134.66;5026642;28;20033;-68
2021/10/25 06:39:11;;;;;;;0.10;0.10;;;;;;;6.25;100.00;101130.75;5006898;28;20529;-68
2021/10/25 06:41:40;;;;;;;0.20;0.20;;;;;;;6.22;100.00;101134.03;4998769;28;20045;-68
2021/10/25 06:44:06;;;;;;;0.10;0.10;;;;;;;6.27;100.00;101139.25;5028276;28;20371;-69
2021/10/25 06:46:33;;;;;;;0.10;0.10;;;;;;;6.30;100.00;101143.97;5009677;28;20040;-68
2021/10/25 06:49:01;;;;;;;0.10;0.10;;;;;;;6.30;100.00;101142.09;5007500;28;20060;-68
2021/10/25 06:51:28;;;;;;;0.10;0.10;;;;;;;6.31;100.00;101135.63;5006931;28;20117;-68
2021/10/25 06:53:53;;;;;;;0.10;0.10;;;;;;;6.31;100.00;101142.84;5012459;28;20136;-68
2021/10/25 06:56:20;;;;;;;0.30;0.30;;;;;;;6.30;100.00;101151.97;5010384;28;20462;-68
2021/10/25 06:58:46;;;;;;;0.10;0.10;;;;;;;6.28;100.00;101143.50;5021912;28;20113;-67
2021/10/25 07:01:11;;;;;;;0.10;0.10;;;;;;;6.30;100.00;101152.78;5008782;28;20560;-68
2021/10/25 07:03:39;;;;;;;0.10;0.10;;;;;;;6.31;100.00;101149.00;5023999;28;20041;-68
2021/10/25 07:06:07;;;;;;;0.10;0.10;;;;;;;6.41;100.00;101150.56;5016903;28;20505;-67
2021/10/25 07:08:34;;;;;;;0.10;0.10;;;;;;;6.43;100.00;101153.72;5010438;28;20110;-68
2021/10/25 07:11:00;;;;;;;0.25;0.25;;;;;;;6.48;100.00;101155.47;5031226;28;20041;-68
2021/10/25 07:13:27;;;;;;;0.10;0.10;;;;;;;6.46;100.00;101155.78;5021960;28;20119;-68
2021/10/25 07:16:12;;;;;;;0.10;0.10;;;;;;;6.51;100.00;101158.28;5031198;28;20120;-68
2021/10/25 07:19:06;;;;;;;0.10;0.10;;;;;;;6.61;100.00;101160.66;5021846;28;20030;-68
2021/10/25 08:06:45;;;;;;;0.10;0.10;;;;;;;7.50;100.00;101173.22;5009869;28;20040;-68
2021/10/25 08:09:44;;;;;;;0.10;0.10;;;;;;;7.57;99.63;101185.03;5011437;28;20025;-68
2021/10/25 08:12:15;;;;;;;0.10;0.10;;;;;;;7.73;98.31;101180.72;5021630;28;20033;-69
2021/10/25 08:14:49;;;;;;;0.08;0.08;;;;;;;7.70;99.25;101167.16;5002975;28;20026;-67
2021/10/25 08:17:19;;;;;;;0.10;0.10;;;;;;;7.80;99.37;101170.25;5019522;28;20406;-68
2021/10/25 08:19:49;;;;;;;0.10;0.10;;;;;;;7.92;98.78;101172.25;5004648;28;20040;-69
2021/10/25 08:22:17;;;;;;;0.10;0.10;;;;;;;8.01;98.97;101171.09;5021685;28;20025;-68
2021/10/25 08:24:49;;;;;;;0.20;0.20;;;;;;;8.10;98.19;101173.72;5036959;28;20116;-68
2021/10/25 08:27:48;;;;;;;0.10;0.10;;;;;;;8.14;98.08;101163.94;5026857;28;20494;-69
2021/10/25 08:30:18;;;;;;;0.10;0.10;;;;;;;8.28;98.30;101172.56;5040572;28;20075;-68
2021/10/25 08:35:49;;;;;;;0.13;0.13;;;;;;;8.44;97.25;101178.88;4964237;28;20065;-68
2021/10/25 08:41:19;;;;;;;0.20;0.20;;;;;;;8.64;96.22;101163.91;5033476;28;20033;-68
2021/10/25 08:43:46;;;;;;;1.88;1.40;;;;;;;8.71;96.11;101156.88;5015355;28;20037;-69
2021/10/25 08:46:15;;;;;;;0.20;0.20;;;;;;;8.79;96.26;101168.66;5018077;28;20056;-68
2021/10/25 08:48:43;;;;;;;0.30;0.30;;;;;;;8.86;96.48;101175.09;5010601;28;20029;-68
2021/10/25 08:51:09;;;;;;;0.20;0.20;;;;;;;8.98;95.41;101166.28;5013317;28;20459;-68
2021/10/25 08:53:36;;;;;;;0.10;0.10;;;;;;;9.05;94.33;101159.25;5010021;28;20021;-69
2021/10/25 08:56:04;;;;;;;0.10;0.10;;;;;;;9.10;94.41;101155.56;5030894;28;20470;-68
2021/10/25 08:58:54;;;;;;;0.20;0.20;;;;;;;9.17;93.62;101141.59;5010135;28;20118;-68
2021/10/25 09:01:27;;;;;;;0.20;0.20;;;;;;;9.14;94.27;101144.97;5010667;28;21109;-69
2021/10/25 09:04:13;;;;;;;0.75;0.32;;;;;;;9.21;93.59;101148.66;5027012;28;20033;-68
2021/10/25 09:06:58;;;;;;;0.05;0.05;;;;;;;9.31;93.83;101147.44;5014644;28;20561;-68
2021/10/25 09:09:30;;;;;;;0.10;0.10;;;;;;;9.37;94.26;101154.94;5005565;28;20061;-68
2021/10/25 09:12:07;;;;;;;0.10;0.10;;;;;;;9.56;93.56;101146.34;5011274;28;20106;-68
2021/10/25 09:14:57;;;;;;;0.25;0.25;;;;;;;9.75;92.41;101152.75;5028106;28;20427;-68
2021/10/25 09:17:24;;;;;;;0.03;0.03;;;;;;;9.84;92.57;101149.94;5027928;28;20033;-68
2021/10/25 09:19:52;;;;;;;0.30;0.20;;;;;;;9.96;91.78;101144.56;5011317;28;20026;-69
2021/10/25 09:22:21;;;;;;;0.10;0.10;;;;;;;10.02;91.44;101143.19;5020432;28;20038;-68
2021/10/25 09:24:55;;;;;;;0.10;0.10;;;;;;;10.09;92.07;101140.72;5013931;28;20033;-67
2021/10/25 09:27:33;;;;;;;0.10;0.10;;;;;;;10.20;91.34;101136.44;5020039;28;20436;-67
2021/10/25 09:30:10;;;;;;;0.47;0.47;;;;;;;10.31;90.61;101134.88;5025672;28;20021;-67
2021/10/25 09:32:39;;;;;;;0.22;0.22;;;;;;;10.39;90.45;101125.88;5018210;28;20436;-70
2021/10/25 09:35:30;;;;;;;0.10;0.10;;;;;;;10.46;90.39;101123.38;5023285;28;20044;-68
2021/10/25 09:38:31;;;;;;;0.20;0.20;;;;;;;10.45;90.25;101104.88;5019996;28;20049;-68
2021/10/25 09:49:14;;;;;;;0.17;0.17;;;;;;;10.71;89.93;101130.25;5022490;28;20033;-68
2021/10/25 09:51:53;;;;;;;0.10;0.10;;;;;;;10.75;89.71;101143.81;5012269;28;20112;-68
2021/10/25 09:54:21;;;;;;;0.45;0.45;;;;;;;10.73;89.91;101146.84;5013840;28;20041;-67
2021/10/25 09:58:02;;;;;;;0.10;0.10;;;;;;;10.91;90.17;101147.34;5014112;28;20553;-67
2021/10/25 10:00:18;;;;;;;0.00;0.00;;;;;;;11.07;88.91;101145.44;5012769;28;20498;-67
2021/10/25 10:02:48;;;;;;;0.00;0.00;;;;;;;11.08;88.87;101154.31;5015671;28;20029;-67
2021/10/25 10:05:24;;;;;;;0.10;0.10;;;;;;;11.25;88.57;101145.88;5010276;28;20530;-67
2021/10/25 10:07:52;;;;;;;0.43;0.32;;;;;;;11.32;89.16;101144.19;5031597;28;20041;-67
2021/10/25 10:10:26;;;;;;;0.10;0.10;;;;;;;11.48;88.66;101141.47;5025425;28;20025;-66
2021/10/25 10:13:02;;;;;;;0.40;0.40;;;;;;;11.56;88.25;101141.28;5029133;28;20025;-67
2021/10/25 10:15:34;;;;;;;0.20;0.20;;;;;;;11.58;88.30;101136.34;5002334;28;20033;-67
2021/10/25 10:18:07;;;;;;;0.13;0.13;;;;;;;11.74;86.25;101136.34;5014399;28;20029;-66
2021/10/25 10:21:01;;;;;;;0.10;0.10;;;;;;;11.79;85.94;101126.06;4999728;28;20046;-67
2021/10/25 10:23:28;;;;;;;0.10;0.10;;;;;;;11.86;85.50;101128.16;5017459;28;20035;-66
2021/10/25 10:25:57;;;;;;;0.25;0.25;;;;;;;11.98;85.70;101122.63;4999239;28;20030;-67
2021/10/25 10:28:41;;;;;;;0.32;0.32;;;;;;;12.10;85.12;101121.75;5034715;28;20033;-67
2021/10/25 10:31:24;;;;;;;3.20;0.70;;;;;;;12.15;85.24;101130.34;5016598;28;20758;-67
2021/10/25 10:34:13;;;;;;;0.20;0.20;;;;;;;12.27;85.06;101119.41;5024670;28;20026;-68
2021/10/25 10:36:53;;;;;;;0.08;0.08;;;;;;;12.46;84.42;101121.34;5010229;28;20088;-68
2021/10/25 10:39:25;;;;;;;0.25;0.25;;;;;;;12.55;84.59;101113.81;4999703;28;20152;-69
2021/10/25 10:42:06;;;;;;;0.10;0.10;;;;;;;12.66;84.43;101112.88;5014333;28;20048;-68
2021/10/25 10:45:03;;;;;;;0.08;0.08;;;;;;;12.70;84.35;101113.72;5016697;28;20060;-68
2021/10/25 10:47:50;;;;;;;0.00;0.00;;;;;;;12.63;84.07;101119.00;4998466;28;20036;-69
2021/10/25 10:50:47;;;;;;;0.10;0.10;;;;;;;12.50;84.67;101112.16;5019337;28;20049;-68
2021/10/25 10:53:20;;;;;;;0.13;0.13;;;;;;;12.49;85.00;101109.81;5027119;28;20029;-68
2021/10/25 10:55:51;;;;;;;0.17;0.17;;;;;;;12.43;85.74;101106.63;5018569;28;20520;-67
2021/10/25 10:58:29;;;;;;;0.00;0.00;;;;;;;12.51;85.58;101118.34;5002537;28;20045;-68
2021/10/25 11:01:05;;;;;;;0.05;0.05;;;;;;;12.59;84.77;101122.75;5024915;28;20037;-67
2021/10/25 11:03:32;;;;;;;0.10;0.10;;;;;;;12.56;84.91;101124.25;5025842;28;20034;-67
2021/10/25 11:06:02;;;;;;;0.10;0.10;;;;;;;12.52;85.66;101136.13;5028028;28;20119;-67
2021/10/25 11:08:30;;;;;;;0.03;0.03;;;;;;;12.54;85.90;101129.22;5027459;28;20494;-67
2021/10/25 11:11:19;;;;;;;0.00;0.00;;;;;;;12.58;86.43;101129.31;5026019;28;20735;-67
2021/10/25 11:14:04;;;;;;;0.10;0.10;;;;;;;12.65;86.26;101122.13;5016551;28;20041;-67
2021/10/25 11:19:00;;;;;;;0.10;0.10;;;;;;;12.81;85.54;101127.44;5028660;28;20474;-68
2021/10/25 11:21:30;;;;;;;0.22;0.22;;;;;;;12.78;86.04;101127.34;5034071;28;20121;-68
2021/10/25 11:24:15;;;;;;;1.48;1.00;;;;;;;12.85;85.08;101131.00;5026945;28;20501;-67
2021/10/25 11:26:49;;;;;;;0.00;0.00;;;;;;;12.86;85.37;101127.16;5004151;28;20043;-67
2021/10/25 11:29:20;;;;;;;0.00;0.00;;;;;;;12.86;85.52;101124.44;5030025;28;20025;-67
2021/10/25 11:31:46;;;;;;;;;;;;;;;12.89;85.69;101112.16;5036766;28;20486;-67
2021/10/25 11:34:18;;;;;;;0.03;0.03;;;;;;;12.99;85.04;101117.72;5018293;28;19924;-68
2021/10/25 11:37:05;;;;;;;1.33;1.23;;;;;;;12.96;85.48;101114.97;5025749;28;20118;-68
2021/10/25 11:39:54;;;;;;;0.10;0.10;;;;;;;12.98;85.44;101118.09;5001958;28;20422;-67
2021/10/25 11:42:23;;;;;;;0.00;0.00;;;;;;;12.96;85.75;101110.34;5008838;28;20033;-67
2021/10/25 11:44:50;;;;;;;0.55;0.13;;;;;;;13.06;85.84;101109.78;5003189;28;20038;-67
2021/10/25 11:47:27;;;;;;;0.10;0.10;;;;;;;13.06;86.09;101098.97;5012299;28;20135;-67
2021/10/25 11:49:57;;;;;;;0.52;0.52;;;;;;;13.12;85.93;101094.84;5025361;28;20084;-67
2021/10/25 11:52:23;;;;;;;0.10;0.10;;;;;;;13.15;85.88;101101.41;5005793;28;20040;-67
2021/10/25 11:54:51;;;;;;;0.10;0.10;;;;;;;13.12;85.77;101094.03;5023270;28;20276;-68
2021/10/25 11:57:23;;;;;;;0.15;0.15;;;;;;;13.08;85.76;101098.59;5028168;28;20444;-67
2021/10/25 12:00:02;;;;;;;0.10;0.10;;;;;;;13.13;85.91;101087.47;5014709;28;20132;-67
2021/10/25 12:02:38;;;;;;;0.00;0.00;;;;;;;13.13;86.42;101084.78;5022359;28;20041;-67
2021/10/25 12:05:05;;;;;;;0.10;0.10;;;;;;;13.21;86.12;101086.47;5025940;28;20053;-68
2021/10/25 12:07:33;;;;;;;0.00;0.00;;;;;;;13.23;85.95;101084.19;5025189;28;20048;-67
2021/10/25 12:10:05;;;;;;;0.00;0.00;;;;;;;13.20;86.38;101084.91;5010532;28;20128;-67
2021/10/25 12:12:31;;;;;;;0.00;0.00;;;;;;;13.17;86.84;101091.03;5026205;28;20045;-68
2021/10/25 12:15:03;;;;;;;0.05;0.05;;;;;;;13.19;86.67;101089.53;5026338;28;20039;-67
2021/10/25 12:17:35;;;;;;;0.00;0.00;;;;;;;13.32;85.72;101082.78;5026164;28;20047;-67
2021/10/25 12:20:05;;;;;;;0.20;0.15;;;;;;;13.24;86.11;101088.47;5030506;28;20528;-67
2021/10/25 12:22:30;;;;;;;0.30;0.30;;;;;;;13.15;86.80;101094.09;5022484;28;20091;-68
2021/10/25 12:24:57;;;;;;;0.05;0.05;;;;;;;13.20;86.75;101084.91;5012445;28;20042;-67
2021/10/25 12:27:36;;;;;;;0.25;0.25;;;;;;;13.18;87.22;101081.78;5026679;28;20053;-67
2021/10/25 12:30:12;;;;;;;0.40;0.40;;;;;;;13.16;87.33;101078.66;5013915;28;20029;-67
2021/10/25 12:32:51;;;;;;;0.55;0.40;;;;;;;13.16;87.41;101078.66;5004195;28;20040;-68
2021/10/25 12:35:16;;;;;;;0.00;0.00;;;;;;;13.22;87.14;101082.63;5025507;28;20041;-68
2021/10/25 12:37:41;;;;;;;0.10;0.10;;;;;;;13.25;86.89;101087.31;5023096;28;20997;-67
2021/10/25 12:40:19;;;;;;;0.00;0.00;;;;;;;13.09;87.85;101073.13;5027120;28;20033;-67
2021/10/25 12:42:46;;;;;;;0.00;0.00;;;;;;;13.06;88.56;101080.03;5029876;28;20096;-67
2021/10/25 12:45:20;;;;;;;0.10;0.10;;;;;;;13.05;88.52;101080.38;5022175;28;20030;-68
2021/10/25 12:47:47;;;;;;;0.30;0.30;;;;;;;13.04;88.81;101073.44;5027556;28;20033;-68
2021/10/25 12:50:15;;;;;;;0.00;0.00;;;;;;;13.03;88.67;101072.63;5026138;28;20040;-67
2021/10/25 12:52:44;;;;;;;0.00;0.00;;;;;;;13.03;88.77;101064.53;5013103;28;20037;-67
2021/10/25 12:55:10;;;;;;;0.10;0.10;;;;;;;13.00;89.13;101064.44;5025336;28;20402;-68
2021/10/25 12:57:39;;;;;;;0.20;0.20;;;;;;;12.98;89.28;101064.03;5031681;28;20030;-67
2021/10/25 13:00:10;;;;;;;0.50;0.32;;;;;;;12.95;89.35;101062.06;5031228;28;20040;-67
2021/10/25 13:02:42;;;;;;;0.05;0.05;;;;;;;12.97;89.19;101062.47;5033057;28;20124;-67
2021/10/25 13:05:16;;;;;;;0.15;0.15;;;;;;;12.97;89.55;101057.06;5026401;28;20030;-67
2021/10/25 13:07:48;;;;;;;0.00;0.00;;;;;;;13.04;89.18;101055.28;5027305;28;20500;-68
2021/10/25 13:10:16;;;;;;;0.10;0.10;;;;;;;12.96;90.17;101056.28;5030368;28;20416;-67
2021/10/25 13:12:42;;;;;;;0.30;0.20;;;;;;;12.94;90.40;101058.56;5025253;28;20040;-68
2021/10/25 13:15:08;;;;;;;0.10;0.10;;;;;;;12.99;90.48;101049.38;5031395;28;20405;-68
2021/10/25 13:17:33;;;;;;;0.00;0.00;;;;;;;12.97;90.41;101038.13;5028240;28;20030;-68
2021/10/25 13:19:59;;;;;;;0.17;0.17;;;;;;;12.93;91.31;101053.50;5031894;28;20489;-68